createdAt,value
2018-06-02T00:02:06.732Z,13.61
2018-06-02T00:04:33.029Z,13.61
2018-06-02T00:06:59.356Z,13.20
2018-06-02T00:09:25.751Z,13.14
2018-06-02T00:11:52.072Z,13.27
2018-06-02T00:14:18.431Z,13.34
2018-06-02T00:16:44.761Z,13.63
2018-06-02T00:19:11.062Z,13.96
2018-06-02T00:21:37.788Z,13.97
2018-06-02T00:24:04.091Z,13.83
2018-06-02T00:26:30.379Z,13.59
2018-06-02T00:28:56.703Z,13.31
2018-06-02T00:31:23.030Z,13.30
2018-06-02T00:33:49.358Z,13.24
2018-06-02T00:36:15.736Z,13.08
2018-06-02T00:38:42.026Z,13.12
2018-06-02T00:41:08.329Z,13.34
2018-06-02T00:43:34.901Z,13.59
2018-06-02T00:46:01.227Z,13.43
2018-06-02T00:48:27.524Z,12.97
2018-06-02T00:50:53.850Z,12.52
2018-06-02T00:53:20.160Z,12.34
2018-06-02T00:55:46.452Z,12.47
2018-06-02T00:58:12.796Z,12.78
2018-06-02T01:00:39.120Z,13.07
2018-06-02T01:03:05.436Z,13.24
2018-06-02T01:05:31.873Z,13.42
2018-06-02T01:07:58.188Z,13.58
2018-06-02T01:10:24.593Z,13.59
2018-06-02T01:12:50.925Z,13.63
2018-06-02T01:15:17.218Z,13.25
2018-06-02T01:17:43.580Z,13.14
2018-06-02T01:20:09.940Z,13.13
2018-06-02T01:22:36.233Z,13.17
2018-06-02T01:25:02.573Z,13.35
2018-06-02T01:27:28.990Z,13.17
2018-06-02T01:29:55.306Z,12.77
2018-06-02T01:32:21.603Z,12.48
2018-06-02T01:34:47.923Z,12.33
2018-06-02T01:37:14.230Z,12.39
2018-06-02T01:39:45.920Z,12.19
2018-06-02T01:42:12.247Z,12.16
2018-06-02T01:44:38.549Z,12.01
2018-06-02T01:47:04.836Z,11.97
2018-06-02T01:49:31.247Z,12.03
2018-06-02T01:51:57.548Z,12.23
2018-06-02T01:54:23.844Z,12.48
2018-06-02T01:56:50.178Z,12.39
2018-06-02T01:59:16.497Z,12.12
2018-06-02T02:01:42.789Z,11.58
2018-06-02T02:04:09.904Z,11.51
2018-06-02T02:06:36.207Z,11.37
2018-06-02T02:09:02.624Z,11.42
2018-06-02T02:11:29.168Z,11.91
2018-06-02T02:13:55.485Z,12.05
2018-06-02T02:16:21.786Z,12.22
2018-06-02T02:18:48.132Z,12.08
2018-06-02T02:21:14.440Z,11.87
2018-06-02T02:23:40.744Z,11.57
2018-06-02T02:26:07.104Z,11.62
2018-06-02T02:28:33.397Z,11.62
2018-06-02T02:30:59.682Z,11.63
2018-06-02T02:33:26.128Z,11.58
2018-06-02T02:35:52.432Z,11.55
2018-06-02T02:38:18.733Z,11.12
2018-06-02T02:40:45.063Z,11.24
2018-06-02T02:43:11.365Z,11.23
2018-06-02T02:45:37.673Z,11.13
2018-06-02T02:48:04.289Z,10.43
2018-06-02T02:50:30.593Z,10.25
2018-06-02T02:52:56.893Z,10.27
2018-06-02T02:55:23.476Z,10.28
2018-06-02T02:57:49.789Z,10.28
2018-06-02T03:00:16.097Z,10.52
2018-06-02T03:02:42.443Z,10.88
2018-06-02T03:05:08.830Z,11.19
2018-06-02T03:07:35.271Z,11.26
2018-06-02T03:10:01.609Z,11.46
2018-06-02T03:12:28.003Z,11.66
2018-06-02T03:14:54.304Z,11.77
2018-06-02T03:17:20.698Z,11.75
2018-06-02T03:19:46.991Z,11.68
2018-06-02T03:22:13.283Z,11.66
2018-06-02T03:24:39.640Z,11.65
2018-06-02T03:27:05.927Z,11.62
2018-06-02T03:29:32.211Z,11.51
2018-06-02T03:31:58.546Z,11.86
2018-06-02T03:34:24.840Z,12.17
2018-06-02T03:36:51.138Z,11.97
2018-06-02T03:39:17.529Z,11.32
2018-06-02T03:41:43.811Z,11.20
2018-06-02T03:44:10.108Z,11.24
2018-06-02T03:46:36.435Z,11.08
2018-06-02T03:49:02.755Z,10.99
2018-06-02T03:51:29.048Z,10.73
2018-06-02T03:53:55.375Z,10.76
2018-06-02T03:56:21.663Z,10.89
2018-06-02T03:58:47.963Z,11.11
2018-06-02T04:01:14.499Z,11.19
2018-06-02T04:03:40.793Z,11.38
2018-06-02T04:06:07.077Z,11.75
2018-06-02T04:08:33.401Z,11.92
2018-06-02T04:10:59.680Z,12.13
2018-06-02T04:13:26.067Z,12.24
2018-06-02T04:15:52.412Z,12.65
2018-06-02T04:18:18.710Z,13.15
2018-06-02T04:20:45.015Z,13.39
2018-06-02T04:23:11.409Z,13.49
2018-06-02T04:25:37.691Z,13.59
2018-06-02T04:28:04.132Z,13.64
2018-06-02T04:30:30.470Z,13.71
2018-06-02T04:32:57.036Z,13.89
2018-06-02T04:35:23.326Z,14.03
2018-06-02T04:37:49.653Z,14.19
2018-06-02T04:40:15.959Z,14.31
2018-06-02T04:42:42.263Z,14.31
2018-06-02T04:45:08.666Z,14.65
2018-06-02T04:47:34.976Z,14.97
2018-06-02T04:50:01.273Z,15.06
2018-06-02T04:52:27.599Z,15.33
2018-06-02T04:54:53.909Z,15.54
2018-06-02T04:57:20.211Z,15.89
2018-06-02T04:59:46.550Z,16.14
2018-06-02T05:02:12.864Z,16.49
2018-06-02T05:04:39.143Z,16.80
2018-06-02T05:07:05.542Z,16.90
2018-06-02T05:09:31.836Z,17.10
2018-06-02T05:11:58.116Z,17.15
2018-06-02T05:14:24.672Z,16.99
2018-06-02T05:16:50.977Z,16.93
2018-06-02T05:19:17.270Z,17.05
2018-06-02T05:21:43.588Z,17.29
2018-06-02T05:24:10.101Z,17.50
2018-06-02T05:26:36.638Z,17.97
2018-06-02T05:29:03.133Z,18.26
2018-06-02T05:31:29.419Z,18.39
2018-06-02T05:33:56.181Z,18.75
2018-06-02T05:36:37.436Z,18.45
2018-06-02T05:39:04.961Z,18.79
2018-06-02T05:41:31.246Z,18.98
2018-06-02T05:43:57.610Z,19.02
2018-06-02T05:46:23.889Z,19.13
2018-06-02T05:48:50.172Z,19.26
2018-06-02T05:51:16.560Z,18.96
2018-06-02T05:53:42.847Z,19.28
2018-06-02T05:56:09.205Z,19.42
2018-06-02T05:58:35.727Z,19.74
2018-06-02T06:01:02.039Z,19.80
2018-06-02T06:03:28.375Z,19.52
2018-06-02T06:05:54.700Z,19.98
2018-06-02T06:08:21.011Z,20.27
2018-06-02T06:10:47.311Z,20.47
2018-06-02T06:13:18.191Z,20.25
2018-06-02T06:15:44.772Z,20.27
2018-06-02T06:18:11.100Z,20.42
2018-06-02T06:20:37.449Z,20.57
2018-06-02T06:23:04.043Z,20.86
2018-06-02T06:25:30.423Z,21.26
2018-06-02T06:27:57.102Z,21.52
2018-06-02T06:30:23.756Z,22.16
2018-06-02T06:32:51.005Z,22.13
2018-06-02T06:35:20.218Z,21.63
2018-06-02T06:37:46.522Z,21.44
2018-06-02T06:40:12.854Z,21.66
2018-06-02T06:42:39.600Z,22.16
2018-06-02T06:45:05.888Z,21.97
2018-06-02T06:47:32.177Z,22.26
2018-06-02T06:49:58.666Z,22.70
2018-06-02T06:52:25.177Z,23.03
2018-06-02T06:54:51.469Z,23.40
2018-06-02T06:57:17.895Z,23.54
2018-06-02T06:59:44.193Z,24.02
2018-06-02T07:02:10.491Z,24.31
2018-06-02T07:04:36.814Z,23.81
2018-06-02T07:07:03.112Z,23.14
2018-06-02T07:09:29.521Z,23.30
2018-06-02T07:11:55.869Z,23.23
2018-06-02T07:14:22.179Z,23.48
2018-06-02T07:16:48.614Z,23.93
2018-06-02T07:19:15.065Z,24.22
2018-06-02T07:21:41.381Z,23.43
2018-06-02T07:24:09.900Z,23.82
2018-06-02T07:26:36.865Z,24.44
2018-06-02T07:29:03.216Z,24.87
2018-06-02T07:31:29.538Z,25.00
2018-06-02T07:33:55.876Z,24.70
2018-06-02T07:36:22.194Z,25.00
2018-06-02T07:38:48.523Z,25.06
2018-06-02T07:41:15.050Z,25.24
2018-06-02T07:43:41.377Z,24.87
2018-06-02T07:46:07.792Z,24.89
2018-06-02T07:48:34.261Z,24.76
2018-06-02T07:51:00.594Z,25.13
2018-06-02T07:53:27.078Z,25.41
2018-06-02T07:55:53.581Z,25.60
2018-06-02T07:58:19.914Z,26.09
2018-06-02T08:00:46.308Z,25.79
2018-06-02T08:05:47.993Z,26.54
2018-06-02T08:08:15.436Z,26.78
2018-06-02T08:10:48.202Z,26.53
2018-06-02T08:13:14.500Z,26.38
2018-06-02T08:15:41.094Z,26.55
2018-06-02T08:18:07.753Z,26.79
2018-06-02T08:20:35.100Z,26.68
2018-06-02T08:23:04.488Z,26.69
2018-06-02T08:25:30.891Z,27.34
2018-06-02T08:27:57.233Z,27.69
2018-06-02T08:30:23.535Z,27.67
2018-06-02T08:32:49.872Z,27.89
2018-06-02T08:35:16.178Z,28.21
2018-06-02T08:37:42.468Z,28.42
2018-06-02T08:40:08.792Z,28.31
2018-06-02T08:42:35.079Z,28.41
2018-06-02T08:45:01.363Z,28.37
2018-06-02T08:47:27.754Z,28.33
2018-06-02T08:49:54.056Z,28.27
2018-06-02T08:52:20.340Z,28.30
2018-06-02T08:54:46.687Z,28.69
2018-06-02T08:57:12.989Z,28.45
2018-06-02T08:59:39.332Z,29.39
2018-06-02T09:02:06.656Z,29.32
2018-06-02T09:04:32.956Z,28.95
2018-06-02T09:06:59.279Z,29.08
2018-06-02T09:09:25.667Z,28.63
2018-06-02T09:11:51.964Z,29.47
2018-06-02T09:14:18.259Z,29.15
2018-06-02T09:16:44.596Z,28.98
2018-06-02T09:19:12.648Z,28.48
2018-06-02T09:21:38.996Z,28.78
2018-06-02T09:24:05.478Z,29.56
2018-06-02T09:26:31.774Z,29.33
2018-06-02T09:28:58.309Z,28.38
2018-06-02T09:31:24.819Z,28.58
2018-06-02T09:33:51.165Z,28.97
2018-06-02T09:36:17.489Z,29.07
2018-06-02T09:38:43.838Z,28.98
2018-06-02T09:41:10.141Z,29.13
2018-06-02T09:43:36.454Z,28.96
2018-06-02T09:46:02.863Z,29.59
2018-06-02T09:48:29.182Z,30.04
2018-06-02T09:50:55.498Z,30.27
2018-06-02T09:53:22.063Z,29.85
2018-06-02T09:55:48.410Z,29.77
2018-06-02T09:58:14.723Z,29.43
2018-06-02T10:00:41.086Z,29.74
2018-06-02T10:03:07.379Z,29.56
2018-06-02T10:05:33.693Z,29.90
2018-06-02T10:08:00.069Z,29.67
2018-06-02T10:10:26.436Z,29.25
2018-06-02T10:12:52.699Z,29.48
2018-06-02T10:15:19.112Z,29.97
2018-06-02T10:17:45.475Z,30.48
2018-06-02T10:20:11.903Z,30.89
2018-06-02T10:22:38.243Z,31.18
2018-06-02T10:25:04.538Z,30.92
2018-06-02T10:27:30.830Z,30.60
2018-06-02T10:29:57.158Z,31.70
2018-06-02T10:32:23.465Z,30.46
2018-06-02T10:34:49.772Z,30.59
2018-06-02T10:37:16.179Z,30.74
2018-06-02T10:39:42.526Z,30.47
2018-06-02T10:42:08.836Z,29.73
2018-06-02T10:44:35.215Z,30.33
2018-06-02T10:47:01.533Z,31.32
2018-06-02T10:49:27.827Z,31.80
2018-06-02T10:51:54.181Z,32.38
2018-06-02T10:54:20.494Z,31.20
2018-06-02T10:56:46.804Z,30.52
2018-06-02T10:59:13.200Z,31.04
2018-06-02T11:01:39.534Z,31.04
2018-06-02T11:04:05.866Z,31.78
2018-06-02T11:06:32.187Z,31.55
2018-06-02T11:08:58.519Z,31.26
2018-06-02T11:11:24.920Z,30.96
2018-06-02T11:13:51.277Z,30.96
2018-06-02T11:16:17.590Z,31.03
2018-06-02T11:18:43.890Z,31.12
2018-06-02T11:21:10.405Z,30.37
2018-06-02T11:23:36.736Z,29.73
2018-06-02T11:26:03.076Z,29.75
2018-06-02T11:28:29.407Z,30.02
2018-06-02T11:30:55.708Z,30.01
2018-06-02T11:33:22.019Z,29.61
2018-06-02T11:35:48.426Z,29.75
2018-06-02T11:38:14.716Z,29.33
2018-06-02T11:40:41.006Z,28.93
2018-06-02T11:43:07.451Z,28.39
2018-06-02T11:45:33.751Z,28.13
2018-06-02T11:48:00.056Z,27.92
2018-06-02T11:50:26.419Z,27.26
2018-06-02T11:52:52.775Z,27.27
2018-06-02T11:55:19.080Z,27.20
2018-06-02T11:57:45.472Z,26.81
2018-06-02T12:00:11.763Z,26.72
2018-06-02T12:02:38.052Z,26.65
2018-06-02T12:05:04.488Z,27.27
2018-06-02T12:07:30.855Z,28.53
2018-06-02T12:09:58.190Z,28.72
2018-06-02T12:12:26.216Z,28.37
2018-06-02T12:14:52.563Z,28.75
2018-06-02T12:17:18.849Z,28.55
2018-06-02T12:19:50.316Z,29.33
2018-06-02T12:22:16.867Z,29.89
2018-06-02T12:24:43.154Z,30.86
2018-06-02T12:27:09.585Z,30.88
2018-06-02T12:29:35.880Z,30.80
2018-06-02T12:32:02.188Z,30.44
2018-06-02T12:34:28.518Z,29.84
2018-06-02T12:36:54.815Z,29.20
2018-06-02T12:39:21.123Z,29.65
2018-06-02T12:41:47.468Z,29.55
2018-06-02T12:44:13.775Z,29.77
2018-06-02T12:46:40.080Z,29.55
2018-06-02T12:49:06.572Z,30.42
2018-06-02T12:51:32.905Z,30.45
2018-06-02T12:53:59.861Z,30.51
2018-06-02T12:56:26.210Z,30.70
2018-06-02T12:58:52.520Z,31.01
2018-06-02T13:01:18.882Z,30.60
2018-06-02T13:03:45.248Z,29.82
2018-06-02T13:06:12.732Z,29.76
2018-06-02T13:08:39.015Z,29.60
2018-06-02T13:11:05.428Z,29.70
2018-06-02T13:13:31.739Z,29.77
2018-06-02T13:15:58.071Z,29.97
2018-06-02T13:18:24.507Z,30.40
2018-06-02T13:20:50.810Z,30.86
2018-06-02T13:23:17.313Z,31.25
2018-06-02T13:25:43.660Z,31.73
2018-06-02T13:28:10.292Z,31.90
2018-06-02T13:30:36.748Z,32.32
2018-06-02T13:33:03.467Z,31.83
2018-06-02T13:35:30.692Z,30.98
2018-06-02T13:37:57.324Z,31.45
2018-06-02T13:40:26.755Z,32.10
2018-06-02T13:42:53.052Z,32.51
2018-06-02T13:45:19.345Z,31.60
2018-06-02T13:47:45.679Z,30.58
2018-06-02T13:50:11.981Z,28.96
2018-06-02T13:52:38.310Z,28.02
2018-06-02T13:55:04.771Z,27.72
2018-06-02T13:57:31.125Z,27.83
2018-06-02T13:59:57.397Z,27.81
2018-06-02T14:02:23.715Z,27.54
2018-06-02T14:04:50.989Z,27.34
2018-06-02T14:07:17.304Z,27.03
2018-06-02T14:09:43.643Z,27.01
2018-06-02T14:12:09.994Z,27.10
2018-06-02T14:14:36.322Z,27.25
2018-06-02T14:17:03.444Z,27.20
2018-06-02T14:19:30.258Z,27.18
2018-06-02T14:21:56.571Z,27.20
2018-06-02T14:24:23.143Z,27.23
2018-06-02T14:26:49.448Z,27.34
2018-06-02T14:29:15.774Z,28.01
2018-06-02T14:31:42.089Z,29.32
2018-06-02T14:34:08.676Z,30.79
2018-06-02T14:36:34.981Z,31.99
2018-06-02T14:39:01.383Z,32.95
2018-06-02T14:41:27.670Z,33.91
2018-06-02T14:43:53.954Z,34.69
2018-06-02T14:46:20.294Z,34.70
2018-06-02T14:48:46.586Z,34.02
2018-06-02T14:51:12.867Z,33.36
2018-06-02T14:53:39.176Z,31.80
2018-06-02T14:56:05.474Z,30.44
2018-06-02T14:58:31.783Z,29.41
2018-06-02T15:00:58.246Z,28.70
2018-06-02T15:03:24.542Z,28.52
2018-06-02T15:05:50.843Z,27.58
2018-06-02T15:08:17.173Z,27.27
2018-06-02T15:10:43.472Z,26.82
2018-06-02T15:13:09.882Z,26.50
2018-06-02T15:15:36.334Z,26.21
2018-06-02T15:18:02.642Z,25.88
2018-06-02T15:20:28.933Z,25.44
2018-06-02T15:22:56.896Z,25.20
2018-06-02T15:25:23.520Z,24.97
2018-06-02T15:27:49.820Z,24.87
2018-06-02T15:30:16.172Z,24.60
2018-06-02T15:32:42.454Z,24.50
2018-06-02T15:35:08.753Z,24.35
2018-06-02T15:37:35.102Z,24.31
2018-06-02T15:40:01.408Z,23.88
2018-06-02T15:42:27.699Z,23.71
2018-06-02T15:44:54.079Z,23.42
2018-06-02T15:47:20.378Z,23.12
2018-06-02T15:49:46.664Z,22.71
2018-06-02T15:52:12.993Z,22.60
2018-06-02T15:54:39.288Z,22.24
2018-06-02T15:57:05.601Z,22.28
2018-06-02T15:59:31.923Z,22.17
2018-06-02T16:01:58.205Z,22.12
2018-06-02T16:04:24.482Z,21.98
2018-06-02T16:06:50.871Z,22.12
2018-06-02T16:09:17.158Z,22.14
2018-06-02T16:11:43.455Z,22.14
2018-06-02T16:14:09.784Z,22.17
2018-06-02T16:16:37.056Z,22.30
2018-06-02T16:19:03.404Z,22.26
2018-06-02T16:21:29.784Z,22.12
2018-06-02T16:23:56.098Z,22.04
2018-06-02T16:26:22.499Z,22.09
2018-06-02T16:28:49.758Z,22.00
2018-06-02T16:31:16.051Z,21.69
2018-06-02T16:33:42.360Z,21.50
2018-06-02T16:36:08.694Z,21.41
2018-06-02T16:38:34.980Z,21.27
2018-06-02T16:41:01.279Z,20.88
2018-06-02T16:43:28.629Z,20.90
2018-06-02T16:45:54.942Z,20.87
2018-06-02T16:48:21.232Z,20.93
2018-06-02T16:50:47.652Z,20.90
2018-06-02T16:53:13.931Z,20.75
2018-06-02T16:55:40.216Z,20.76
2018-06-02T16:58:06.551Z,20.78
2018-06-02T17:00:32.905Z,20.89
2018-06-02T17:02:59.205Z,20.82
2018-06-02T17:05:25.532Z,20.62
2018-06-02T17:07:51.836Z,20.26
2018-06-02T17:10:18.126Z,19.84
2018-06-02T17:12:44.542Z,19.80
2018-06-02T17:15:10.831Z,20.00
2018-06-02T17:17:37.228Z,20.06
2018-06-02T17:20:03.598Z,19.73
2018-06-02T17:22:29.907Z,19.59
2018-06-02T17:24:56.202Z,19.58
2018-06-02T17:27:24.800Z,19.59
2018-06-02T17:29:51.207Z,19.48
2018-06-02T17:32:17.497Z,19.43
2018-06-02T17:34:44.800Z,19.30
2018-06-02T17:37:11.122Z,18.96
2018-06-02T17:39:37.409Z,18.79
2018-06-02T17:42:03.768Z,18.59
2018-06-02T17:44:30.050Z,18.59
2018-06-02T17:46:56.337Z,18.33
2018-06-02T17:49:22.658Z,17.98
2018-06-02T17:51:49.927Z,17.95
2018-06-02T17:54:16.235Z,17.50
2018-06-02T17:56:43.006Z,17.62
2018-06-02T17:59:09.308Z,17.63
2018-06-02T18:01:35.606Z,17.62
2018-06-02T18:04:01.969Z,17.73
2018-06-02T18:06:28.299Z,17.71
2018-06-02T18:08:54.617Z,17.58
2018-06-02T18:11:20.971Z,17.69
2018-06-02T18:13:47.266Z,17.87
2018-06-02T18:16:13.559Z,17.93
2018-06-02T18:18:39.970Z,17.92
2018-06-02T18:21:06.267Z,17.93
2018-06-02T18:23:32.547Z,17.91
2018-06-02T18:25:58.903Z,17.94
2018-06-02T18:28:25.367Z,17.94
2018-06-02T18:30:51.675Z,17.73
2018-06-02T18:33:18.048Z,17.83
2018-06-02T18:35:44.353Z,17.83
2018-06-02T18:38:10.676Z,17.85
2018-06-02T18:40:37.254Z,17.77
2018-06-02T18:43:03.598Z,17.25
2018-06-02T18:45:29.888Z,16.98
2018-06-02T18:47:56.223Z,16.88
2018-06-02T18:50:22.526Z,16.84
2018-06-02T18:52:48.832Z,16.99
2018-06-02T18:55:15.154Z,16.76
2018-06-02T18:57:41.510Z,16.79
2018-06-02T19:00:07.831Z,16.68
2018-06-02T19:02:34.477Z,16.92
2018-06-02T19:05:00.818Z,17.04
2018-06-02T19:07:27.199Z,17.13
2018-06-02T19:09:53.548Z,17.23
2018-06-02T19:12:19.912Z,17.08
2018-06-02T19:14:46.380Z,17.09
2018-06-02T19:17:12.756Z,17.31
2018-06-02T19:19:39.071Z,17.38
2018-06-02T19:22:05.384Z,17.34
2018-06-02T19:24:31.835Z,17.25
2018-06-02T19:26:58.145Z,17.19
2018-06-02T19:29:24.659Z,17.22
2018-06-02T19:31:50.915Z,17.14
2018-06-02T19:34:17.195Z,17.20
2018-06-02T19:36:43.490Z,17.22
2018-06-02T19:39:09.832Z,17.13
2018-06-02T19:41:36.132Z,17.13
2018-06-02T19:44:02.495Z,17.07
2018-06-02T19:46:28.905Z,17.06
2018-06-02T19:48:55.196Z,17.00
2018-06-02T19:51:22.277Z,16.98
2018-06-02T19:53:48.739Z,16.94
2018-06-02T19:56:15.175Z,16.93
2018-06-02T19:58:41.481Z,16.96
2018-06-02T20:01:07.801Z,16.99
2018-06-02T20:03:34.098Z,17.06
2018-06-02T20:06:00.395Z,17.10
2018-06-02T20:08:26.809Z,17.02
2018-06-02T20:10:53.128Z,16.99
2018-06-02T20:13:19.824Z,16.96
2018-06-02T20:15:46.163Z,16.91
2018-06-02T20:18:12.470Z,16.92
2018-06-02T20:20:38.791Z,16.78
2018-06-02T20:23:05.123Z,16.82
2018-06-02T20:25:31.440Z,16.78
2018-06-02T20:27:58.508Z,16.73
2018-06-02T20:30:25.215Z,16.66
2018-06-02T20:32:51.504Z,16.59
2018-06-02T20:35:17.819Z,16.52
2018-06-02T20:37:44.182Z,16.53
2018-06-02T20:40:10.486Z,16.51
2018-06-02T20:42:37.145Z,16.42
2018-06-02T20:45:05.158Z,16.57
2018-06-02T20:47:31.473Z,16.49
2018-06-02T20:49:57.764Z,16.39
2018-06-02T20:52:24.171Z,16.40
2018-06-02T20:54:50.677Z,16.34
2018-06-02T20:57:16.999Z,16.45
2018-06-02T20:59:43.421Z,16.41
2018-06-02T21:02:09.747Z,16.41
2018-06-02T21:04:36.077Z,16.41
2018-06-02T21:07:02.448Z,16.27
2018-06-02T21:09:28.728Z,16.27
2018-06-02T21:11:55.021Z,16.14
2018-06-02T21:14:21.490Z,16.04
2018-06-02T21:16:47.790Z,15.97
2018-06-02T21:19:14.085Z,16.00
2018-06-02T21:21:40.460Z,15.76
2018-06-02T21:24:06.791Z,15.66
2018-06-02T21:26:33.092Z,15.68
2018-06-02T21:28:59.454Z,15.76
2018-06-02T21:31:25.966Z,15.74
2018-06-02T21:33:52.303Z,15.63
2018-06-02T21:39:43.037Z,15.17
2018-06-02T21:42:10.883Z,15.14
2018-06-02T21:44:38.715Z,15.24
2018-06-02T21:47:06.532Z,15.16
2018-06-02T21:49:34.379Z,15.26
2018-06-02T21:52:02.370Z,15.36
2018-06-02T21:54:30.172Z,15.26
2018-06-02T21:56:58.070Z,15.10
2018-06-02T21:59:25.950Z,15.02
2018-06-02T22:01:53.831Z,14.90
2018-06-02T22:04:21.671Z,14.89
2018-06-02T22:06:49.789Z,14.84
2018-06-02T22:09:17.632Z,14.80
2018-06-02T22:11:45.575Z,14.58
2018-06-02T22:14:13.806Z,14.35
2018-06-02T22:16:41.871Z,14.14
2018-06-02T22:19:10.048Z,14.26
2018-06-02T22:21:37.924Z,14.37
2018-06-02T22:24:05.910Z,13.77
2018-06-02T22:26:33.955Z,13.54
2018-06-02T22:29:01.830Z,13.37
2018-06-02T22:31:29.974Z,13.21
2018-06-02T22:33:58.034Z,13.09
2018-06-02T22:36:25.895Z,13.12
2018-06-02T22:38:53.762Z,13.43
2018-06-02T22:41:21.978Z,13.42
2018-06-02T22:43:50.440Z,13.46
2018-06-02T22:46:18.338Z,13.61
2018-06-02T22:48:46.455Z,13.52
2018-06-02T22:51:14.622Z,13.54
2018-06-02T22:53:45.558Z,13.61
2018-06-02T22:56:13.679Z,13.85
2018-06-02T22:58:41.773Z,13.89
2018-06-02T23:01:15.485Z,13.95
2018-06-02T23:03:45.515Z,13.88
2018-06-02T23:06:13.745Z,13.91
2018-06-02T23:08:42.059Z,13.88
2018-06-02T23:11:11.865Z,14.08
2018-06-02T23:13:39.853Z,14.22
2018-06-02T23:16:07.831Z,14.27
2018-06-02T23:18:35.631Z,14.29
2018-06-02T23:21:03.443Z,14.34
2018-06-02T23:23:31.376Z,14.53
2018-06-02T23:25:59.203Z,14.57
2018-06-02T23:28:27.021Z,14.58
2018-06-02T23:30:54.856Z,14.53
2018-06-02T23:33:22.801Z,14.59
2018-06-02T23:35:50.610Z,14.72
2018-06-02T23:38:18.440Z,14.67
2018-06-02T23:40:46.287Z,14.65
2018-06-02T23:43:14.088Z,14.72
2018-06-02T23:45:42.060Z,14.70
2018-06-02T23:48:10.026Z,14.75
2018-06-02T23:50:37.992Z,14.90
2018-06-02T23:53:05.840Z,14.76
2018-06-02T23:55:33.640Z,14.71
2018-06-02T23:58:01.452Z,14.69
